sensor_id;sensor_type;location;lat;lon;timestamp;pressure;altitude;pressure_sealevel;temperature;humidity
40205;BME280;26963;42.666;23.366;2022-11-15T00:01:16;95539.72;;;6.50;61.10
40205;BME280;26963;42.666;23.366;2022-11-15T00:03:43;95538.84;;;6.44;61.51
40205;BME280;26963;42.666;23.366;2022-11-15T00:06:08;95464.84;;;6.03;61.70
40205;BME280;26963;42.666;23.366;2022-11-15T00:08:34;95516.72;;;6.33;61.05
40205;BME280;26963;42.666;23.366;2022-11-15T00:11:01;95538.84;;;6.44;61.19
40205;BME280;26963;42.666;23.366;2022-11-15T00:13:28;95536.94;;;6.40;61.17
40205;BME280;26963;42.666;23.366;2022-11-15T00:15:56;95542.38;;;6.50;61.15
40205;BME280;26963;42.666;23.366;2022-11-15T00:18:22;95539.41;;;6.46;59.86
40205;BME280;26963;42.666;23.366;2022-11-15T00:20:48;95537.56;;;6.47;60.04
40205;BME280;26963;42.666;23.366;2022-11-15T00:23:13;95521.19;;;6.33;60.31
40205;BME280;26963;42.666;23.366;2022-11-15T00:25:39;95477.09;;;6.04;59.98
40205;BME280;26963;42.666;23.366;2022-11-15T00:28:04;95520.94;;;6.34;60.52
40205;BME280;26963;42.666;23.366;2022-11-15T00:30:30;95392.81;;;5.50;59.95
40205;BME280;26963;42.666;23.366;2022-11-15T00:32:56;95528.91;;;6.34;60.38
40205;BME280;26963;42.666;23.366;2022-11-15T00:35:22;95503.53;;;6.22;59.79
40205;BME280;26963;42.666;23.366;2022-11-15T00:37:47;95328.84;;;5.02;58.58
40205;BME280;26963;42.666;23.366;2022-11-15T00:40:14;95443.72;;;5.69;59.12
40205;BME280;26963;42.666;23.366;2022-11-15T00:42:40;95476.50;;;6.02;59.77
40205;BME280;26963;42.666;23.366;2022-11-15T00:45:06;95521.16;;;6.28;61.49
40205;BME280;26963;42.666;23.366;2022-11-15T00:47:31;95514.00;;;6.28;61.58
40205;BME280;26963;42.666;23.366;2022-11-15T00:49:57;95509.69;;;6.22;61.60
40205;BME280;26963;42.666;23.366;2022-11-15T00:52:23;95519.78;;;6.25;61.48
40205;BME280;26963;42.666;23.366;2022-11-15T00:54:48;95492.50;;;6.08;60.99
40205;BME280;26963;42.666;23.366;2022-11-15T00:57:14;95519.78;;;6.25;59.92
40205;BME280;26963;42.666;23.366;2022-11-15T00:59:39;95495.53;;;6.16;58.92
40205;BME280;26963;42.666;23.366;2022-11-15T01:02:05;95441.13;;;5.75;59.42
40205;BME280;26963;42.666;23.366;2022-11-15T01:04:30;95443.00;;;5.74;60.48
40205;BME280;26963;42.666;23.366;2022-11-15T01:06:56;95505.38;;;6.16;61.55
40205;BME280;26963;42.666;23.366;2022-11-15T01:09:21;95320.50;;;4.94;62.27
40205;BME280;26963;42.666;23.366;2022-11-15T01:11:47;95508.28;;;6.14;62.15
40205;BME280;26963;42.666;23.366;2022-11-15T01:14:13;95450.75;;;5.81;60.72
40205;BME280;26963;42.666;23.366;2022-11-15T01:16:39;95481.28;;;6.00;60.07
40205;BME280;26963;42.666;23.366;2022-11-15T01:19:04;95391.41;;;5.43;59.67
40205;BME280;26963;42.666;23.366;2022-11-15T01:21:30;95498.34;;;6.04;59.68
40205;BME280;26963;42.666;23.366;2022-11-15T01:23:56;95490.63;;;6.03;59.76
40205;BME280;26963;42.666;23.366;2022-11-15T01:26:23;95498.81;;;6.01;59.92
40205;BME280;26963;42.666;23.366;2022-11-15T01:28:49;95471.63;;;5.94;59.51
40205;BME280;26963;42.666;23.366;2022-11-15T01:31:17;95502.66;;;6.11;58.78
40205;BME280;26963;42.666;23.366;2022-11-15T01:33:43;95471.81;;;5.87;60.05
40205;BME280;26963;42.666;23.366;2022-11-15T01:36:15;95515.44;;;6.14;60.81
40205;BME280;26963;42.666;23.366;2022-11-15T01:38:40;95471.63;;;5.94;60.23
40205;BME280;26963;42.666;23.366;2022-11-15T01:41:06;95499.13;;;6.05;59.63
40205;BME280;26963;42.666;23.366;2022-11-15T01:43:34;95503.13;;;6.08;60.16
40205;BME280;26963;42.666;23.366;2022-11-15T01:48:43;95485.97;;;5.93;58.74
40205;BME280;26963;42.666;23.366;2022-11-15T01:51:11;95490.16;;;5.89;58.16
40205;BME280;26963;42.666;23.366;2022-11-15T01:53:40;95500.28;;;5.92;58.98
40205;BME280;26963;42.666;23.366;2022-11-15T01:56:10;95403.00;;;5.36;60.63
40205;BME280;26963;42.666;23.366;2022-11-15T01:58:38;95477.31;;;5.81;60.78
40205;BME280;26963;42.666;23.366;2022-11-15T02:01:05;95497.94;;;5.96;62.47
40205;BME280;26963;42.666;23.366;2022-11-15T02:03:46;95421.75;;;5.52;63.37
40205;BME280;26963;42.666;23.366;2022-11-15T02:06:14;95482.75;;;5.91;63.93
40205;BME280;26963;42.666;23.366;2022-11-15T02:08:40;95415.03;;;5.44;63.12
40205;BME280;26963;42.666;23.366;2022-11-15T02:11:11;95490.31;;;5.99;62.52
40205;BME280;26963;42.666;23.366;2022-11-15T02:13:37;95494.97;;;5.92;61.55
40205;BME280;26963;42.666;23.366;2022-11-15T02:22:22;95492.72;;;5.84;58.45
40205;BME280;26963;42.666;23.366;2022-11-15T02:36:01;95432.78;;;5.21;58.47
40205;BME280;26963;42.666;23.366;2022-11-15T02:41:08;95421.88;;;5.18;60.42
40205;BME280;26963;42.666;23.366;2022-11-15T02:43:43;95476.97;;;5.50;61.97
40205;BME280;26963;42.666;23.366;2022-11-15T02:49:41;95472.44;;;5.50;61.42
40205;BME280;26963;42.666;23.366;2022-11-15T02:52:07;95423.41;;;5.14;60.19
40205;BME280;26963;42.666;23.366;2022-11-15T02:54:34;95486.09;;;5.59;58.85
40205;BME280;26963;42.666;23.366;2022-11-15T02:57:07;95489.91;;;5.68;58.89
40205;BME280;26963;42.666;23.366;2022-11-15T03:02:24;95491.03;;;5.72;58.72
40205;BME280;26963;42.666;23.366;2022-11-15T03:10:20;95488.00;;;5.64;60.69
40205;BME280;26963;42.666;23.366;2022-11-15T03:12:59;95491.97;;;5.61;60.54
40205;BME280;26963;42.666;23.366;2022-11-15T03:15:28;95489.31;;;5.61;59.79
40205;BME280;26963;42.666;23.366;2022-11-15T03:17:59;95479.66;;;5.55;59.16
40205;BME280;26963;42.666;23.366;2022-11-15T03:20:26;95422.81;;;5.29;58.91
40205;BME280;26963;42.666;23.366;2022-11-15T03:22:56;95427.44;;;5.38;58.97
40205;BME280;26963;42.666;23.366;2022-11-15T03:25:25;95485.72;;;5.72;58.80
40205;BME280;26963;42.666;23.366;2022-11-15T03:27:55;95480.91;;;5.69;58.32
40205;BME280;26963;42.666;23.366;2022-11-15T03:30:23;95471.81;;;5.65;58.81
40205;BME280;26963;42.666;23.366;2022-11-15T03:32:55;95475.91;;;5.73;58.69
40205;BME280;26963;42.666;23.366;2022-11-15T03:35:24;95415.97;;;5.33;58.62
40205;BME280;26963;42.666;23.366;2022-11-15T03:38:24;95472.94;;;5.69;58.96
40205;BME280;26963;42.666;23.366;2022-11-15T03:41:00;95474.59;;;5.76;59.46
40205;BME280;26963;42.666;23.366;2022-11-15T03:43:44;95464.50;;;5.72;59.58
40205;BME280;26963;42.666;23.366;2022-11-15T03:46:15;95462.00;;;5.66;60.46
40205;BME280;26963;42.666;23.366;2022-11-15T03:48:56;95457.81;;;5.48;60.49
40205;BME280;26963;42.666;23.366;2022-11-15T03:51:24;95441.00;;;5.20;61.27
40205;BME280;26963;42.666;23.366;2022-11-15T03:53:50;95452.78;;;5.07;62.01
40205;BME280;26963;42.666;23.366;2022-11-15T03:56:15;95443.63;;;4.81;62.93
40205;BME280;26963;42.666;23.366;2022-11-15T03:58:41;95453.84;;;4.72;63.29
40205;BME280;26963;42.666;23.366;2022-11-15T04:01:06;95434.34;;;4.44;63.96
40205;BME280;26963;42.666;23.366;2022-11-15T04:03:32;95460.03;;;4.44;64.87
40205;BME280;26963;42.666;23.366;2022-11-15T04:05:57;95461.44;;;4.34;65.20
40205;BME280;26963;42.666;23.366;2022-11-15T04:08:23;95439.75;;;4.20;65.66
40205;BME280;26963;42.666;23.366;2022-11-15T04:10:49;95449.91;;;4.40;65.29
40205;BME280;26963;42.666;23.366;2022-11-15T04:13:15;95450.47;;;4.43;64.75
40205;BME280;26963;42.666;23.366;2022-11-15T04:15:40;95372.72;;;3.86;64.88
40205;BME280;26963;42.666;23.366;2022-11-15T04:18:06;95426.31;;;4.22;65.05
40205;BME280;26963;42.666;23.366;2022-11-15T04:20:32;95456.66;;;4.48;64.36
40205;BME280;26963;42.666;23.366;2022-11-15T04:23:20;95428.78;;;4.29;64.52
40205;BME280;26963;42.666;23.366;2022-11-15T04:26:14;95449.91;;;4.23;65.37
40205;BME280;26963;42.666;23.366;2022-11-15T04:28:40;95361.94;;;3.58;65.82
40205;BME280;26963;42.666;23.366;2022-11-15T04:31:26;95430.69;;;3.99;66.07
40205;BME280;26963;42.666;23.366;2022-11-15T04:33:52;95428.50;;;3.96;66.11
40205;BME280;26963;42.666;23.366;2022-11-15T04:36:19;95426.59;;;4.08;65.82
40205;BME280;26963;42.666;23.366;2022-11-15T04:39:03;95455.94;;;4.36;65.60
40205;BME280;26963;42.666;23.366;2022-11-15T04:41:28;95451.50;;;4.41;67.34
40205;BME280;26963;42.666;23.366;2022-11-15T04:43:54;95460.84;;;4.61;68.07
40205;BME280;26963;42.666;23.366;2022-11-15T04:46:21;95455.69;;;4.71;68.15
40205;BME280;26963;42.666;23.366;2022-11-15T04:48:46;95446.88;;;4.83;67.80
40205;BME280;26963;42.666;23.366;2022-11-15T04:51:12;95447.53;;;4.95;67.39
40205;BME280;26963;42.666;23.366;2022-11-15T04:53:37;95424.19;;;4.92;66.52
40205;BME280;26963;42.666;23.366;2022-11-15T04:56:03;95423.91;;;5.11;66.17
40205;BME280;26963;42.666;23.366;2022-11-15T04:58:29;95431.19;;;5.20;65.55
40205;BME280;26963;42.666;23.366;2022-11-15T05:00:54;95369.78;;;4.89;65.52
40205;BME280;26963;42.666;23.366;2022-11-15T05:03:20;95444.59;;;5.53;65.46
40205;BME280;26963;42.666;23.366;2022-11-15T05:06:04;95426.22;;;5.46;65.52
40205;BME280;26963;42.666;23.366;2022-11-15T05:08:30;95445.34;;;5.70;65.19
40205;BME280;26963;42.666;23.366;2022-11-15T05:10:55;95361.78;;;5.29;65.01
40205;BME280;26963;42.666;23.366;2022-11-15T05:13:21;95362.09;;;5.32;64.52
40205;BME280;26963;42.666;23.366;2022-11-15T05:15:47;95445.75;;;5.84;64.54
40205;BME280;26963;42.666;23.366;2022-11-15T05:18:13;95459.41;;;5.93;65.00
40205;BME280;26963;42.666;23.366;2022-11-15T05:20:39;95439.16;;;5.87;64.94
40205;BME280;26963;42.666;23.366;2022-11-15T05:23:04;95377.69;;;5.51;65.32
40205;BME280;26963;42.666;23.366;2022-11-15T05:25:30;95429.34;;;5.93;65.60
40205;BME280;26963;42.666;23.366;2022-11-15T05:27:56;95444.63;;;6.02;66.00
40205;BME280;26963;42.666;23.366;2022-11-15T05:30:21;95433.63;;;5.94;65.91
40205;BME280;26963;42.666;23.366;2022-11-15T05:32:47;95387.34;;;5.62;65.59
40205;BME280;26963;42.666;23.366;2022-11-15T05:35:20;95423.94;;;6.04;65.41
40205;BME280;26963;42.666;23.366;2022-11-15T05:37:48;95441.09;;;6.19;65.02
40205;BME280;26963;42.666;23.366;2022-11-15T05:40:14;95431.16;;;6.09;64.85
40205;BME280;26963;42.666;23.366;2022-11-15T05:42:39;95437.88;;;6.17;65.93
40205;BME280;26963;42.666;23.366;2022-11-15T05:45:06;95384.94;;;5.83;65.97
40205;BME280;26963;42.666;23.366;2022-11-15T05:47:34;95430.97;;;6.16;65.77
40205;BME280;26963;42.666;23.366;2022-11-15T05:50:01;95435.28;;;6.22;65.45
40205;BME280;26963;42.666;23.366;2022-11-15T05:52:30;95457.72;;;6.36;65.38
40205;BME280;26963;42.666;23.366;2022-11-15T05:54:58;95382.44;;;5.98;64.74
40205;BME280;26963;42.666;23.366;2022-11-15T05:57:24;95411.09;;;6.24;64.63
40205;BME280;26963;42.666;23.366;2022-11-15T05:59:50;95439.75;;;6.49;64.84
40205;BME280;26963;42.666;23.366;2022-11-15T06:02:16;95440.84;;;6.53;63.99
40205;BME280;26963;42.666;23.366;2022-11-15T06:04:42;95453.13;;;6.59;64.39
40205;BME280;26963;42.666;23.366;2022-11-15T06:07:07;95441.38;;;6.50;64.94
40205;BME280;26963;42.666;23.366;2022-11-15T06:09:33;95363.53;;;5.95;64.95
40205;BME280;26963;42.666;23.366;2022-11-15T06:11:58;95458.41;;;6.54;64.97
40205;BME280;26963;42.666;23.366;2022-11-15T06:14:24;95433.25;;;6.34;65.51
40205;BME280;26963;42.666;23.366;2022-11-15T06:16:49;95442.78;;;6.30;65.31
40205;BME280;26963;42.666;23.366;2022-11-15T06:19:15;95373.81;;;5.86;65.44
40205;BME280;26963;42.666;23.366;2022-11-15T06:21:40;95457.50;;;6.43;65.74
40205;BME280;26963;42.666;23.366;2022-11-15T06:24:06;95446.31;;;6.36;66.06
40205;BME280;26963;42.666;23.366;2022-11-15T06:26:32;95387.59;;;6.10;65.67
40205;BME280;26963;42.666;23.366;2022-11-15T06:28:57;95463.22;;;6.57;65.12
40205;BME280;26963;42.666;23.366;2022-11-15T06:31:23;95440.09;;;6.58;64.40
40205;BME280;26963;42.666;23.366;2022-11-15T06:33:48;95435.84;;;6.57;63.71
40205;BME280;26963;42.666;23.366;2022-11-15T06:36:15;95387.22;;;6.29;64.17
40205;BME280;26963;42.666;23.366;2022-11-15T06:38:43;95436.97;;;6.66;64.20
40205;BME280;26963;42.666;23.366;2022-11-15T06:41:10;95399.84;;;6.44;63.99
40205;BME280;26963;42.666;23.366;2022-11-15T06:43:36;95447.22;;;6.84;64.00
40205;BME280;26963;42.666;23.366;2022-11-15T06:46:04;95451.81;;;6.94;63.58
40205;BME280;26963;42.666;23.366;2022-11-15T06:48:31;95432.84;;;6.85;63.25
40205;BME280;26963;42.666;23.366;2022-11-15T06:50:58;95424.06;;;6.85;63.26
40205;BME280;26963;42.666;23.366;2022-11-15T06:53:26;95429.41;;;6.90;63.13
40205;BME280;26963;42.666;23.366;2022-11-15T06:55:51;95380.28;;;6.60;62.60
40205;BME280;26963;42.666;23.366;2022-11-15T06:58:17;95448.16;;;7.06;62.69
40205;BME280;26963;42.666;23.366;2022-11-15T07:00:43;95381.41;;;6.69;63.18
40205;BME280;26963;42.666;23.366;2022-11-15T07:03:08;95434.31;;;7.09;62.88
40205;BME280;26963;42.666;23.366;2022-11-15T07:05:34;95436.22;;;7.13;62.87
40205;BME280;26963;42.666;23.366;2022-11-15T07:08:00;95435.66;;;7.11;63.01
40205;BME280;26963;42.666;23.366;2022-11-15T07:10:27;95429.56;;;7.11;63.20
40205;BME280;26963;42.666;23.366;2022-11-15T07:12:54;95440.75;;;7.18;63.33
40205;BME280;26963;42.666;23.366;2022-11-15T07:15:22;95426.34;;;7.09;63.18
40205;BME280;26963;42.666;23.366;2022-11-15T07:17:48;95359.34;;;6.69;62.71
40205;BME280;26963;42.666;23.366;2022-11-15T07:20:14;95408.41;;;6.94;63.43
40205;BME280;26963;42.666;23.366;2022-11-15T07:22:40;95351.53;;;6.57;63.43
40205;BME280;26963;42.666;23.366;2022-11-15T07:25:06;95412.16;;;6.98;63.63
40205;BME280;26963;42.666;23.366;2022-11-15T07:27:32;95427.47;;;7.23;63.13
40205;BME280;26963;42.666;23.366;2022-11-15T07:29:58;95410.44;;;7.19;63.15
40205;BME280;26963;42.666;23.366;2022-11-15T07:32:26;95443.00;;;7.37;62.76
40205;BME280;26963;42.666;23.366;2022-11-15T07:34:52;95440.38;;;7.47;62.85
40205;BME280;26963;42.666;23.366;2022-11-15T07:37:17;95397.16;;;7.29;62.42
40205;BME280;26963;42.666;23.366;2022-11-15T07:39:43;95440.69;;;7.61;62.21
40205;BME280;26963;42.666;23.366;2022-11-15T07:42:09;95416.69;;;7.50;62.06
40205;BME280;26963;42.666;23.366;2022-11-15T07:44:53;95437.00;;;7.67;62.12
40205;BME280;26963;42.666;23.366;2022-11-15T07:47:19;95436.25;;;7.77;62.21
40205;BME280;26963;42.666;23.366;2022-11-15T07:49:46;95378.63;;;7.50;61.40
40205;BME280;26963;42.666;23.366;2022-11-15T07:52:12;95420.00;;;7.83;61.32
40205;BME280;26963;42.666;23.366;2022-11-15T07:54:38;95428.84;;;7.94;61.01
40205;BME280;26963;42.666;23.366;2022-11-15T07:57:04;95434.97;;;8.00;60.75
40205;BME280;26963;42.666;23.366;2022-11-15T07:59:30;95421.91;;;8.04;60.65
40205;BME280;26963;42.666;23.366;2022-11-15T08:01:55;95424.88;;;8.07;60.57
40205;BME280;26963;42.666;23.366;2022-11-15T08:04:21;95439.53;;;8.20;60.73
40205;BME280;26963;42.666;23.366;2022-11-15T08:06:47;95433.44;;;8.25;60.62
40205;BME280;26963;42.666;23.366;2022-11-15T08:09:12;95433.16;;;8.26;60.40
40205;BME280;26963;42.666;23.366;2022-11-15T08:11:38;95436.38;;;8.28;60.63
40205;BME280;26963;42.666;23.366;2022-11-15T08:14:03;95359.78;;;7.93;60.10
40205;BME280;26963;42.666;23.366;2022-11-15T08:16:29;95425.72;;;8.44;60.10
40205;BME280;26963;42.666;23.366;2022-11-15T08:18:54;95430.50;;;8.42;59.74
40205;BME280;26963;42.666;23.366;2022-11-15T08:21:20;95412.38;;;8.39;59.77
40205;BME280;26963;42.666;23.366;2022-11-15T08:23:46;95416.09;;;8.43;59.79
40205;BME280;26963;42.666;23.366;2022-11-15T08:26:12;95426.81;;;8.53;59.69
40205;BME280;26963;42.666;23.366;2022-11-15T08:28:38;95401.72;;;8.44;59.68
40205;BME280;26963;42.666;23.366;2022-11-15T08:31:04;95395.88;;;8.47;59.20
40205;BME280;26963;42.666;23.366;2022-11-15T08:33:31;95425.19;;;8.62;59.49
40205;BME280;26963;42.666;23.366;2022-11-15T08:35:59;95302.25;;;7.81;59.47
40205;BME280;26963;42.666;23.366;2022-11-15T08:38:25;95415.59;;;8.46;59.99
40205;BME280;26963;42.666;23.366;2022-11-15T08:40:52;95412.88;;;8.41;60.19
40205;BME280;26963;42.666;23.366;2022-11-15T08:43:18;95400.34;;;8.26;60.68
40205;BME280;26963;42.666;23.366;2022-11-15T08:45:44;95397.44;;;8.17;60.67
40205;BME280;26963;42.666;23.366;2022-11-15T08:48:10;95356.84;;;7.84;61.44
40205;BME280;26963;42.666;23.366;2022-11-15T08:50:35;95403.81;;;8.26;61.35
40205;BME280;26963;42.666;23.366;2022-11-15T08:53:06;95396.88;;;8.25;60.92
40205;BME280;26963;42.666;23.366;2022-11-15T08:55:32;95411.84;;;8.37;60.98
40205;BME280;26963;42.666;23.366;2022-11-15T08:57:58;95391.28;;;8.37;60.83
40205;BME280;26963;42.666;23.366;2022-11-15T09:00:24;95388.38;;;8.39;60.71
40205;BME280;26963;42.666;23.366;2022-11-15T09:02:49;95360.13;;;8.22;60.32
40205;BME280;26963;42.666;23.366;2022-11-15T09:05:15;95359.06;;;8.33;60.10
40205;BME280;26963;42.666;23.366;2022-11-15T09:07:44;95338.25;;;8.20;60.27
40205;BME280;26963;42.666;23.366;2022-11-15T09:10:09;95264.44;;;7.79;59.90
40205;BME280;26963;42.666;23.366;2022-11-15T09:12:35;95378.78;;;8.63;60.00
40205;BME280;26963;42.666;23.366;2022-11-15T09:15:00;95306.53;;;8.03;59.64
40205;BME280;26963;42.666;23.366;2022-11-15T09:17:26;95297.72;;;7.97;57.50
40205;BME280;26963;42.666;23.366;2022-11-15T09:19:51;95368.91;;;8.23;59.65
40205;BME280;26963;42.666;23.366;2022-11-15T09:22:17;95370.50;;;8.24;62.31
40205;BME280;26963;42.666;23.366;2022-11-15T09:24:43;95356.63;;;8.11;62.37
40205;BME280;26963;42.666;23.366;2022-11-15T09:27:08;95363.84;;;8.16;62.67
40205;BME280;26963;42.666;23.366;2022-11-15T09:29:34;95309.44;;;7.81;62.75
40205;BME280;26963;42.666;23.366;2022-11-15T09:31:59;95353.69;;;8.13;62.50
40205;BME280;26963;42.666;23.366;2022-11-15T09:34:25;95329.16;;;7.90;62.72
40205;BME280;26963;42.666;23.366;2022-11-15T09:36:50;95298.78;;;7.91;62.70
40205;BME280;26963;42.666;23.366;2022-11-15T09:39:16;95319.56;;;8.36;61.17
40205;BME280;26963;42.666;23.366;2022-11-15T09:42:12;95271.63;;;7.89;62.02
40205;BME280;26963;42.666;23.366;2022-11-15T09:44:44;95275.63;;;8.12;61.83
40205;BME280;26963;42.666;23.366;2022-11-15T09:47:58;95330.25;;;8.51;62.04
40205;BME280;26963;42.666;23.366;2022-11-15T09:53:02;95262.81;;;8.30;61.21
40205;BME280;26963;42.666;23.366;2022-11-15T09:55:37;95319.56;;;8.72;60.50
40205;BME280;26963;42.666;23.366;2022-11-15T09:58:38;95325.41;;;8.74;61.36
40205;BME280;26963;42.666;23.366;2022-11-15T10:01:15;95314.97;;;8.88;61.00
40205;BME280;26963;42.666;23.366;2022-11-15T10:03:42;95307.19;;;9.02;61.07
40205;BME280;26963;42.666;23.366;2022-11-15T10:06:32;95300.88;;;9.37;60.33
40205;BME280;26963;42.666;23.366;2022-11-15T10:09:05;95312.22;;;9.69;59.49
40205;BME280;26963;42.666;23.366;2022-11-15T10:11:35;95238.88;;;9.51;58.88
40205;BME280;26963;42.666;23.366;2022-11-15T10:14:08;95214.47;;;9.62;57.19
40205;BME280;26963;42.666;23.366;2022-11-15T10:22:28;95282.28;;;10.95;54.54
40205;BME280;26963;42.666;23.366;2022-11-15T10:27:35;95285.03;;;10.60;55.38
40205;BME280;26963;42.666;23.366;2022-11-15T10:30:03;95278.13;;;10.54;55.70
40205;BME280;26963;42.666;23.366;2022-11-15T10:32:29;95268.19;;;10.59;55.89
40205;BME280;26963;42.666;23.366;2022-11-15T10:34:58;95184.09;;;10.17;55.21
40205;BME280;26963;42.666;23.366;2022-11-15T10:37:29;95248.03;;;10.43;55.82
40205;BME280;26963;42.666;23.366;2022-11-15T10:42:40;95251.22;;;10.45;56.10
40205;BME280;26963;42.666;23.366;2022-11-15T10:45:32;95250.59;;;10.53;55.98
40205;BME280;26963;42.666;23.366;2022-11-15T10:50:49;95188.28;;;10.23;56.12
40205;BME280;26963;42.666;23.366;2022-11-15T10:53:23;95236.03;;;10.65;56.22
40205;BME280;26963;42.666;23.366;2022-11-15T10:55:52;95218.13;;;10.60;55.95
40205;BME280;26963;42.666;23.366;2022-11-15T10:58:51;95231.25;;;10.62;55.90
40205;BME280;26963;42.666;23.366;2022-11-15T11:01:28;95219.38;;;10.68;55.93
40205;BME280;26963;42.666;23.366;2022-11-15T11:04:08;95212.97;;;10.69;56.02
40205;BME280;26963;42.666;23.366;2022-11-15T11:09:34;95137.97;;;10.25;56.03
40205;BME280;26963;42.666;23.366;2022-11-15T11:12:05;95081.44;;;9.89;56.12
40205;BME280;26963;42.666;23.366;2022-11-15T11:14:33;95201.75;;;10.67;55.93
40205;BME280;26963;42.666;23.366;2022-11-15T11:22:19;95185.97;;;10.41;56.86
40205;BME280;26963;42.666;23.366;2022-11-15T11:30:19;95180.09;;;10.15;58.58
40205;BME280;26963;42.666;23.366;2022-11-15T11:33:07;95121.16;;;10.01;57.53
40205;BME280;26963;42.666;23.366;2022-11-15T11:38:18;95159.84;;;10.33;57.72
40205;BME280;26963;42.666;23.366;2022-11-15T11:41:06;95151.72;;;10.43;57.34
40205;BME280;26963;42.666;23.366;2022-11-15T11:49:02;95085.53;;;10.05;57.55
40205;BME280;26963;42.666;23.366;2022-11-15T11:51:53;95068.13;;;10.08;56.77
40205;BME280;26963;42.666;23.366;2022-11-15T11:57:10;95049.47;;;10.03;56.97
40205;BME280;26963;42.666;23.366;2022-11-15T11:59:43;95115.66;;;10.40;57.13
40205;BME280;26963;42.666;23.366;2022-11-15T12:02:30;95125.59;;;10.59;56.72
40205;BME280;26963;42.666;23.366;2022-11-15T12:05:22;95116.28;;;10.56;56.96
40205;BME280;26963;42.666;23.366;2022-11-15T12:07:54;94935.09;;;9.32;57.27
40205;BME280;26963;42.666;23.366;2022-11-15T12:10:28;95096.63;;;10.42;57.02
40205;BME280;26963;42.666;23.366;2022-11-15T12:15:32;95087.13;;;10.31;57.75
40205;BME280;26963;42.666;23.366;2022-11-15T12:18:01;95077.31;;;10.21;57.80
40205;BME280;26963;42.666;23.366;2022-11-15T12:20:30;95101.00;;;10.33;57.73
40205;BME280;26963;42.666;23.366;2022-11-15T12:23:04;95077.25;;;10.26;57.39
40205;BME280;26963;42.666;23.366;2022-11-15T12:25:53;94909.22;;;9.08;58.07
40205;BME280;26963;42.666;23.366;2022-11-15T12:28:38;95091.34;;;10.37;58.13
40205;BME280;26963;42.666;23.366;2022-11-15T12:33:41;95052.09;;;10.51;57.41
40205;BME280;26963;42.666;23.366;2022-11-15T12:36:12;95065.69;;;10.55;57.26
40205;BME280;26963;42.666;23.366;2022-11-15T12:39:06;95065.00;;;10.49;57.12
40205;BME280;26963;42.666;23.366;2022-11-15T12:41:34;95067.44;;;10.46;57.96
40205;BME280;26963;42.666;23.366;2022-11-15T12:44:00;95030.50;;;10.23;58.09
40205;BME280;26963;42.666;23.366;2022-11-15T12:59:54;95061.09;;;10.17;59.41
40205;BME280;26963;42.666;23.366;2022-11-15T13:02:23;95038.66;;;10.13;59.13
40205;BME280;26963;42.666;23.366;2022-11-15T13:04:51;95049.13;;;10.34;58.80
40205;BME280;26963;42.666;23.366;2022-11-15T13:13:03;95044.59;;;10.10;59.71
40205;BME280;26963;42.666;23.366;2022-11-15T13:15:51;95037.78;;;9.99;60.18
40205;BME280;26963;42.666;23.366;2022-11-15T13:18:34;95023.44;;;9.89;59.93
40205;BME280;26963;42.666;23.366;2022-11-15T13:21:00;95028.81;;;9.84;59.73
40205;BME280;26963;42.666;23.366;2022-11-15T13:23:26;94963.13;;;9.35;60.99
40205;BME280;26963;42.666;23.366;2022-11-15T13:33:21;95015.38;;;9.94;60.64
40205;BME280;26963;42.666;23.366;2022-11-15T13:35:51;95007.97;;;9.86;59.87
40205;BME280;26963;42.666;23.366;2022-11-15T13:38:24;95012.84;;;9.79;60.82
40205;BME280;26963;42.666;23.366;2022-11-15T13:40:52;94936.81;;;9.23;61.25
40205;BME280;26963;42.666;23.366;2022-11-15T13:48:56;94973.94;;;9.73;60.06
40205;BME280;26963;42.666;23.366;2022-11-15T13:54:19;95005.88;;;9.83;61.00
40205;BME280;26963;42.666;23.366;2022-11-15T13:56:51;95016.50;;;9.88;61.01
40205;BME280;26963;42.666;23.366;2022-11-15T14:01:51;95015.31;;;10.00;60.51
40205;BME280;26963;42.666;23.366;2022-11-15T14:04:20;94989.84;;;9.83;60.24
40205;BME280;26963;42.666;23.366;2022-11-15T14:06:53;94951.00;;;9.48;61.29
40205;BME280;26963;42.666;23.366;2022-11-15T14:09:37;95011.00;;;9.79;61.29
40205;BME280;26963;42.666;23.366;2022-11-15T14:12:28;95002.06;;;9.89;61.20
40205;BME280;26963;42.666;23.366;2022-11-15T14:17:51;94978.03;;;9.89;60.66
40205;BME280;26963;42.666;23.366;2022-11-15T14:22:55;94982.75;;;9.73;60.97
40205;BME280;26963;42.666;23.366;2022-11-15T14:25:23;94990.06;;;9.62;61.78
40205;BME280;26963;42.666;23.366;2022-11-15T14:30:33;94980.91;;;9.69;61.61
40205;BME280;26963;42.666;23.366;2022-11-15T14:32:58;94999.44;;;9.84;61.54
40205;BME280;26963;42.666;23.366;2022-11-15T14:35:24;94990.75;;;9.73;61.53
40205;BME280;26963;42.666;23.366;2022-11-15T14:37:49;95011.97;;;9.65;61.43
40205;BME280;26963;42.666;23.366;2022-11-15T14:40:17;94965.25;;;9.38;62.40
40205;BME280;26963;42.666;23.366;2022-11-15T14:42:44;94994.97;;;9.55;62.67
40205;BME280;26963;42.666;23.366;2022-11-15T14:45:15;94927.03;;;9.13;62.21
40205;BME280;26963;42.666;23.366;2022-11-15T14:47:42;94990.53;;;9.45;62.06
40205;BME280;26963;42.666;23.366;2022-11-15T14:50:17;94940.53;;;8.97;63.30
40205;BME280;26963;42.666;23.366;2022-11-15T14:52:43;94996.97;;;9.15;63.95
40205;BME280;26963;42.666;23.366;2022-11-15T14:55:19;94976.78;;;9.04;64.15
40205;BME280;26963;42.666;23.366;2022-11-15T14:57:46;94963.16;;;9.05;63.55
40205;BME280;26963;42.666;23.366;2022-11-15T15:00:12;94994.38;;;9.34;63.26
40205;BME280;26963;42.666;23.366;2022-11-15T15:02:38;94962.47;;;8.94;63.19
40205;BME280;26963;42.666;23.366;2022-11-15T15:05:20;94982.19;;;8.93;64.77
40205;BME280;26963;42.666;23.366;2022-11-15T15:07:46;94930.81;;;8.43;65.52
40205;BME280;26963;42.666;23.366;2022-11-15T15:10:12;94980.66;;;8.87;65.05
40205;BME280;26963;42.666;23.366;2022-11-15T15:12:39;94996.19;;;9.09;64.59
40205;BME280;26963;42.666;23.366;2022-11-15T15:15:05;94969.28;;;9.06;64.13
40205;BME280;26963;42.666;23.366;2022-11-15T15:17:31;94980.19;;;9.09;64.00